Terminal Aerodrome Forecast
Issued by NWS Omaha/Valley, NE

Home | Current Version | Previous Version | Text Only | Print | Product List | Glossary On
Versions: 1 2 3 4 5 6 7 8 9 10 11 12 13 14 15 16 17 18
000
FTUS43 KOAX 210909 AAA
TAFOFK
TAF AMD
KOFK 210909Z 2109/2206 17011KT P6SM BKN200 WS015/22040KT
     FM211300 19012KT P6SM BKN200
     FM211700 20014G20KT P6SM SCT250
     FM220100 18005KT P6SM BKN250 PROB30 2202/2206 VRB25G35KT 3SM
      TSRA BKN040CB=

USA.gov is the U.S. government's official web portal to all federal, state and local government web resources and services.